Jarcevo, Russia
Current Conditions -  °F | °C
As of 3:30 PM on Friday 24 Oct 2014 (Local Time) from UNKL Reporting Station
Broken Clouds Broken Clouds  
Wind Chill: 16°   Ceiling: 8300
Heat Index: 16°   Visibility: 6mi
Dew Point:   Wind: 2mph
Humidity: 68%   Direction: NA
Pressure: 30.06"   Gusts: NA
Location:  60.25°N, 90.23°E
Report Text: UNKL 240830Z VRB01MPS 9000 BKN083 M09/M14 Q1018 NOSIG RMKQFE738 29////50
Loading
Personal Weather Stations






























Interactive Weather Map
Tropical Storm Tracking
New forecast layout! Learn more

10-Day Weather Forecast

Advertisements
Track Severe Weather on mobile